Terminal Aerodrome Forecast
Issued by NWS

Home | Current Version | Previous Version | Text Only | Print | Product List | Glossary On
Versions: 1 2 3 4 5 6 7 8 9 10 11 12
000
FTUS46 KPDT 231720
TAFALW
TAF
KALW 231720Z 2318/2418 22005KT P6SM SCT080
     FM240200 16007KT P6SM FEW070 SCT250
     FM241200 20009KT P6SM SCT070 BKN100=

USA.gov is the U.S. government's official web portal to all federal, state and local government web resources and services.